Time;durP1;ratioP1;P1;durP2;ratioP2;P2;SDS_P1;SDS_P2;PMS_P1;PMS_P2;Temp;Humidity;BMP_temperature;BMP_pressure;BME280_temperature;BME280_humidity;BME280_pressure;Samples;Min_cycle;Max_cycle;Signal;HPM_P1;HPM_P2
2022/09/06 00:00:10;;;;;;;13.20;2.67;;;20.70;99.90;;;;;;5051581;28;20033;-58
2022/09/06 00:02:36;;;;;;;11.75;2.78;;;20.60;99.90;;;;;;5044488;28;20037;-58
2022/09/06 00:05:04;;;;;;;11.70;2.55;;;20.60;99.90;;;;;;5032325;28;20064;-59
2022/09/06 00:07:30;;;;;;;14.55;2.65;;;20.60;99.90;;;;;;5041269;28;20052;-59
2022/09/06 00:09:55;;;;;;;10.32;2.50;;;20.60;99.90;;;;;;5051817;28;20364;-58
2022/09/06 00:12:22;;;;;;;12.57;2.63;;;20.50;99.90;;;;;;5031622;28;20044;-59
2022/09/06 00:14:48;;;;;;;8.07;2.25;;;20.50;99.90;;;;;;5032573;28;20033;-58
2022/09/06 00:17:13;;;;;;;10.02;2.15;;;20.50;99.90;;;;;;5042970;28;20163;-57
2022/09/06 00:19:39;;;;;;;9.68;2.60;;;20.50;99.90;;;;;;5047644;28;20032;-59
2022/09/06 00:22:04;;;;;;;10.85;3.00;;;20.50;99.90;;;;;;5036237;28;20048;-58
2022/09/06 00:24:30;;;;;;;8.45;2.67;;;20.50;99.90;;;;;;5034090;28;20042;-58
2022/09/06 00:26:55;;;;;;;17.20;3.22;;;20.70;99.90;;;;;;5035601;28;20037;-58
2022/09/06 00:29:21;;;;;;;13.85;3.10;;;20.50;99.90;;;;;;5051506;28;20037;-59
2022/09/06 00:31:47;;;;;;;10.07;2.97;;;20.50;99.90;;;;;;5048838;28;20053;-58
2022/09/06 00:34:12;;;;;;;8.52;3.40;;;20.60;99.90;;;;;;5051155;28;20120;-60
2022/09/06 00:36:38;;;;;;;15.43;3.45;;;20.50;99.90;;;;;;5033074;28;20044;-58
2022/09/06 00:39:04;;;;;;;10.52;3.35;;;20.50;99.90;;;;;;5051224;28;20082;-58
2022/09/06 00:41:29;;;;;;;8.80;3.40;;;20.40;99.90;;;;;;5049862;28;20033;-58
2022/09/06 00:43:55;;;;;;;10.30;3.28;;;20.30;99.90;;;;;;5032945;28;20453;-60
2022/09/06 00:46:25;;;;;;;10.90;3.60;;;20.30;99.90;;;;;;5035806;28;20041;-57
2022/09/06 00:49:01;;;;;;;11.95;3.70;;;20.20;99.90;;;;;;5049737;28;20086;-59
2022/09/06 00:51:29;;;;;;;11.52;3.95;;;20.20;99.90;;;;;;5049813;28;20037;-57
2022/09/06 00:53:55;;;;;;;10.05;4.10;;;20.20;99.90;;;;;;5043554;28;20041;-57
2022/09/06 00:56:20;;;;;;;17.90;5.18;;;20.40;99.90;;;;;;5051459;28;20067;-58
2022/09/06 00:58:47;;;;;;;10.52;5.18;;;20.30;99.90;;;;;;5037022;28;20091;-58
2022/09/06 01:01:13;;;;;;;10.10;5.00;;;20.30;99.90;;;;;;5036994;28;20110;-60
2022/09/06 01:03:39;;;;;;;9.45;4.97;;;20.40;99.90;;;;;;5045408;28;20120;-59
2022/09/06 01:06:13;;;;;;;9.73;5.25;;;20.50;99.90;;;;;;5034021;28;20109;-57
2022/09/06 01:08:48;;;;;;;6.53;4.90;;;20.40;99.90;;;;;;5049620;28;20106;-58
2022/09/06 01:11:38;;;;;;;10.25;6.00;;;20.40;99.90;;;;;;5049997;28;20099;-59
2022/09/06 01:14:33;;;;;;;13.25;5.68;;;20.50;99.90;;;;;;5038538;28;20041;-58
2022/09/06 01:17:28;;;;;;;10.57;4.93;;;20.40;99.90;;;;;;5050903;28;20084;-58
2022/09/06 01:20:08;;;;;;;14.95;6.40;;;20.40;99.90;;;;;;5032658;28;20041;-57
2022/09/06 01:22:59;;;;;;;12.73;6.10;;;20.40;99.90;;;;;;5041023;28;20522;-58
2022/09/06 01:25:33;;;;;;;18.40;5.65;;;20.30;99.90;;;;;;5050902;28;20037;-59
2022/09/06 01:28:10;;;;;;;10.25;6.07;;;20.30;99.90;;;;;;5030061;28;20175;-59
2022/09/06 01:30:43;;;;;;;9.23;5.90;;;20.30;99.90;;;;;;5031837;28;20080;-58
2022/09/06 01:33:19;;;;;;;7.38;6.15;;;20.30;99.90;;;;;;5039797;28;20167;-57
2022/09/06 01:35:59;;;;;;;;;;;20.30;99.90;;;;;;5049128;28;20049;-59
2022/09/06 01:38:25;;;;;;;6.85;6.10;;;20.20;99.90;;;;;;5044693;28;20409;-58
2022/09/06 01:40:51;;;;;;;13.23;5.38;;;20.20;99.90;;;;;;5044909;28;20038;-58
2022/09/06 01:43:24;;;;;;;10.57;6.47;;;20.10;99.90;;;;;;5045417;28;20033;-58
2022/09/06 01:46:00;;;;;;;6.78;6.00;;;20.00;99.90;;;;;;5036916;28;20506;-58
2022/09/06 01:48:59;;;;;;;11.38;6.10;;;20.00;99.90;;;;;;5023849;28;20103;-59
2022/09/06 01:51:47;;;;;;;12.05;6.20;;;20.00;99.90;;;;;;5036573;28;20042;-59
2022/09/06 01:54:49;;;;;;;14.00;6.72;;;19.90;99.90;;;;;;5042691;28;20544;-58
2022/09/06 01:57:57;;;;;;;10.85;7.03;;;20.00;99.90;;;;;;5054747;28;20098;-59
2022/09/06 02:00:23;;;;;;;9.43;6.22;;;20.00;99.90;;;;;;5023827;28;20049;-58
2022/09/06 02:03:06;;;;;;;8.20;6.63;;;19.90;99.90;;;;;;5045454;28;20103;-58
2022/09/06 02:05:42;;;;;;;12.45;6.95;;;19.90;99.90;;;;;;5052917;28;20530;-59
2022/09/06 02:08:14;;;;;;;7.35;6.20;;;19.80;99.90;;;;;;5048053;28;20097;-59
2022/09/06 02:11:13;;;;;;;14.75;6.47;;;19.80;99.90;;;;;;5041314;28;20116;-58
2022/09/06 02:13:58;;;;;;;12.38;6.47;;;19.80;99.90;;;;;;5022384;28;20529;-58
2022/09/06 02:16:26;;;;;;;10.70;6.50;;;19.70;99.90;;;;;;5050479;28;20041;-59
2022/09/06 02:18:57;;;;;;;10.27;6.85;;;19.70;99.90;;;;;;5041219;28;20095;-59
2022/09/06 02:21:29;;;;;;;8.73;6.85;;;19.60;99.90;;;;;;5016819;28;20053;-58
2022/09/06 02:23:59;;;;;;;9.18;6.90;;;19.50;99.90;;;;;;5045341;28;20060;-58
2022/09/06 02:26:29;;;;;;;8.77;6.60;;;19.70;99.90;;;;;;5054549;28;20041;-58
2022/09/06 02:28:55;;;;;;;8.40;6.72;;;19.80;99.90;;;;;;5050111;28;20037;-58
2022/09/06 02:31:27;;;;;;;12.00;6.57;;;19.80;99.90;;;;;;5054317;28;20052;-58
2022/09/06 02:33:53;;;;;;;9.23;6.63;;;19.80;99.90;;;;;;5052707;28;20045;-58
2022/09/06 02:36:19;;;;;;;8.45;6.40;;;19.80;99.90;;;;;;5054387;28;20041;-58
2022/09/06 02:38:46;;;;;;;8.60;6.53;;;19.80;99.90;;;;;;5046336;28;20561;-57
2022/09/06 02:41:15;;;;;;;12.75;6.90;;;19.80;99.90;;;;;;5054171;28;20513;-58
2022/09/06 02:43:44;;;;;;;8.07;6.05;;;19.90;99.90;;;;;;5019609;28;20034;-58
2022/09/06 02:46:09;;;;;;;10.27;6.13;;;19.90;99.90;;;;;;5035716;28;20041;-58
2022/09/06 02:48:35;;;;;;;8.55;6.00;;;20.00;99.90;;;;;;5053611;28;20044;-58
2022/09/06 02:51:05;;;;;;;8.80;5.63;;;20.00;99.90;;;;;;5053882;28;20067;-58
2022/09/06 02:53:31;;;;;;;8.65;6.07;;;19.90;99.90;;;;;;5047298;28;20063;-58
2022/09/06 02:55:56;;;;;;;13.27;6.35;;;19.80;99.90;;;;;;5053169;28;20037;-60
2022/09/06 02:58:23;;;;;;;13.18;6.65;;;19.70;99.90;;;;;;5048758;28;20122;-58
2022/09/06 03:00:50;;;;;;;10.90;7.18;;;19.70;99.90;;;;;;5051528;28;20092;-58
2022/09/06 03:03:15;;;;;;;7.55;6.13;;;19.60;99.90;;;;;;5042207;28;20108;-58
2022/09/06 03:05:44;;;;;;;10.65;7.10;;;19.50;99.90;;;;;;5049153;28;20089;-58
2022/09/06 03:08:10;;;;;;;9.57;6.68;;;19.50;99.90;;;;;;5045382;28;20042;-58
2022/09/06 03:10:36;;;;;;;7.28;6.25;;;19.50;99.90;;;;;;5040700;28;20059;-58
2022/09/06 03:13:02;;;;;;;10.30;6.03;;;19.50;99.90;;;;;;5051111;28;20532;-57
2022/09/06 03:15:28;;;;;;;9.93;6.75;;;19.50;99.90;;;;;;5051344;28;20045;-58
2022/09/06 03:17:57;;;;;;;18.48;7.07;;;19.40;99.90;;;;;;5024723;28;20457;-58
2022/09/06 03:20:23;;;;;;;15.05;6.60;;;19.50;99.90;;;;;;5034194;28;20479;-57
2022/09/06 03:22:48;;;;;;;10.38;6.88;;;19.40;99.90;;;;;;5040561;28;20039;-59
2022/09/06 03:25:14;;;;;;;12.35;6.88;;;19.50;99.90;;;;;;5052238;28;20032;-58
2022/09/06 03:27:39;;;;;;;10.55;6.47;;;19.40;99.90;;;;;;5051278;28;20090;-58
2022/09/06 03:30:06;;;;;;;11.38;6.75;;;19.40;99.90;;;;;;5033194;28;20067;-58
2022/09/06 03:32:32;;;;;;;8.85;6.72;;;19.40;99.90;;;;;;5033856;28;20065;-57
2022/09/06 03:34:58;;;;;;;15.95;6.72;;;19.40;99.90;;;;;;5036700;28;20061;-60
2022/09/06 03:37:24;;;;;;;9.90;6.47;;;19.30;99.90;;;;;;5051118;28;20041;-59
2022/09/06 03:39:49;;;;;;;10.57;6.88;;;19.30;99.90;;;;;;5052509;28;20494;-58
2022/09/06 03:42:15;;;;;;;8.02;7.13;;;19.40;99.90;;;;;;5051289;28;20041;-59
2022/09/06 03:44:40;;;;;;;10.05;6.95;;;19.40;99.90;;;;;;5038868;28;20041;-58
2022/09/06 03:47:06;;;;;;;16.23;7.07;;;19.40;99.90;;;;;;5033948;28;20041;-58
2022/09/06 03:49:31;;;;;;;10.23;6.22;;;19.40;99.90;;;;;;5041327;28;20052;-57
2022/09/06 03:51:57;;;;;;;7.72;6.50;;;19.40;99.90;;;;;;5032829;28;20045;-58
2022/09/06 03:54:23;;;;;;;11.07;6.50;;;19.40;99.90;;;;;;5040249;28;20409;-57
2022/09/06 03:56:49;;;;;;;12.18;6.53;;;19.30;99.90;;;;;;5051984;28;20044;-59
2022/09/06 03:59:14;;;;;;;7.55;6.05;;;19.30;99.90;;;;;;5035524;28;20052;-57
2022/09/06 04:01:40;;;;;;;10.30;6.80;;;19.20;99.90;;;;;;5047841;28;20053;-58
2022/09/06 04:04:05;;;;;;;9.68;6.50;;;19.20;99.90;;;;;;5015988;28;20388;-59
2022/09/06 04:06:31;;;;;;;6.85;5.90;;;19.20;99.90;;;;;;5033608;28;20052;-58
2022/09/06 04:08:56;;;;;;;9.88;6.63;;;19.10;99.90;;;;;;5048885;28;20033;-58
2022/09/06 04:11:22;;;;;;;9.27;6.72;;;19.10;99.90;;;;;;5044436;28;20453;-58
2022/09/06 04:13:48;;;;;;;11.32;6.63;;;19.10;99.90;;;;;;5034336;28;20059;-57
2022/09/06 04:16:13;;;;;;;8.13;6.60;;;19.00;99.90;;;;;;5035298;28;20037;-57
2022/09/06 04:18:39;;;;;;;11.85;7.53;;;19.00;99.90;;;;;;5040232;28;20029;-58
2022/09/06 04:21:04;;;;;;;7.55;6.78;;;18.90;99.90;;;;;;5051218;28;20033;-58
2022/09/06 04:23:30;;;;;;;8.68;7.10;;;18.80;99.90;;;;;;5050350;28;20052;-58
2022/09/06 04:25:58;;;;;;;8.48;6.85;;;18.70;99.90;;;;;;5033655;28;20403;-59
2022/09/06 04:28:25;;;;;;;10.30;7.20;;;18.70;99.90;;;;;;5035940;28;20037;-58
2022/09/06 04:30:59;;;;;;;10.50;7.07;;;18.70;99.90;;;;;;5046954;28;20082;-57
2022/09/06 04:33:25;;;;;;;9.80;7.43;;;18.70;99.90;;;;;;5039315;28;20479;-57
2022/09/06 04:35:59;;;;;;;8.68;7.47;;;18.70;99.90;;;;;;5020940;28;20040;-58
2022/09/06 04:38:27;;;;;;;9.43;6.85;;;18.70;99.90;;;;;;5041889;28;20136;-57
2022/09/06 04:40:54;;;;;;;9.30;7.43;;;18.80;99.90;;;;;;5049787;28;20395;-58
2022/09/06 04:43:20;;;;;;;12.80;6.68;;;18.90;99.90;;;;;;5051030;28;20130;-59
2022/09/06 04:45:46;;;;;;;9.75;6.38;;;19.00;99.90;;;;;;5051181;28;20036;-57
2022/09/06 04:48:11;;;;;;;9.70;6.85;;;18.90;99.90;;;;;;5049475;28;20401;-59
2022/09/06 04:50:37;;;;;;;10.07;7.18;;;18.90;99.90;;;;;;5048293;28;20041;-58
2022/09/06 04:53:03;;;;;;;13.40;7.97;;;18.80;99.90;;;;;;5050270;28;20037;-57
2022/09/06 04:55:30;;;;;;;9.20;6.72;;;18.70;99.90;;;;;;5050644;28;20100;-58
2022/09/06 04:57:58;;;;;;;10.20;7.25;;;18.70;99.90;;;;;;5045180;28;20538;-58
2022/09/06 05:00:27;;;;;;;11.07;7.28;;;18.70;99.90;;;;;;5022176;28;20044;-58
2022/09/06 05:02:53;;;;;;;8.50;6.85;;;18.70;99.90;;;;;;5041692;28;20042;-58
2022/09/06 05:05:19;;;;;;;9.55;7.10;;;18.60;99.90;;;;;;5031914;28;20068;-59
2022/09/06 05:07:44;;;;;;;12.00;8.00;;;18.70;99.90;;;;;;5028893;28;20075;-58
2022/09/06 05:10:10;;;;;;;11.88;7.38;;;18.60;99.90;;;;;;5046899;28;20494;-58
2022/09/06 05:12:35;;;;;;;10.95;7.38;;;18.60;99.90;;;;;;5044716;28;20068;-58
2022/09/06 05:15:01;;;;;;;9.13;7.05;;;18.60;99.90;;;;;;5053131;28;20434;-58
2022/09/06 05:17:27;;;;;;;9.80;7.82;;;18.50;99.90;;;;;;5043712;28;20479;-60
2022/09/06 05:19:52;;;;;;;14.32;7.80;;;18.50;99.90;;;;;;5040204;28;20491;-57
2022/09/06 05:22:18;;;;;;;13.07;7.80;;;18.40;99.90;;;;;;5048836;28;20094;-58
2022/09/06 05:24:43;;;;;;;9.93;7.65;;;18.30;99.90;;;;;;5058249;28;20456;-58
2022/09/06 05:27:11;;;;;;;11.02;7.03;;;18.40;99.90;;;;;;5063900;28;20491;-59
2022/09/06 05:29:37;;;;;;;12.25;7.07;;;18.30;99.90;;;;;;5041667;28;20032;-58
2022/09/06 05:32:02;;;;;;;11.45;7.97;;;18.30;99.90;;;;;;5060938;28;20520;-58
2022/09/06 05:34:28;;;;;;;8.20;7.30;;;18.30;99.90;;;;;;5055224;28;20048;-58
2022/09/06 05:36:53;;;;;;;13.27;7.90;;;18.30;99.90;;;;;;5046577;28;20510;-58
2022/09/06 05:39:20;;;;;;;16.00;7.60;;;18.20;99.90;;;;;;5051896;28;20563;-58
2022/09/06 05:41:46;;;;;;;9.40;7.05;;;18.20;99.90;;;;;;5051840;28;20060;-58
2022/09/06 05:44:12;;;;;;;10.43;7.50;;;18.10;99.90;;;;;;5051664;28;20033;-58
2022/09/06 05:46:44;;;;;;;10.63;8.25;;;18.10;99.90;;;;;;5054717;28;20508;-60
2022/09/06 05:49:10;;;;;;;10.90;7.25;;;18.10;99.90;;;;;;5050117;28;20036;-59
2022/09/06 05:51:36;;;;;;;14.07;7.45;;;18.00;99.90;;;;;;5053640;28;20040;-58
2022/09/06 05:54:02;;;;;;;11.95;7.85;;;18.00;99.90;;;;;;5057010;28;20055;-58
2022/09/06 05:56:27;;;;;;;12.88;8.18;;;18.00;99.90;;;;;;5035562;28;20048;-60
2022/09/06 05:58:53;;;;;;;11.85;7.68;;;18.00;99.90;;;;;;5046056;28;20050;-58
2022/09/06 06:01:25;;;;;;;9.43;7.43;;;18.00;99.90;;;;;;5054861;28;20394;-57
2022/09/06 06:03:52;;;;;;;10.32;7.88;;;18.00;99.90;;;;;;5052115;28;20053;-57
2022/09/06 06:06:19;;;;;;;10.60;8.18;;;18.00;99.90;;;;;;5052739;28;20209;-58
2022/09/06 06:08:45;;;;;;;13.77;7.88;;;17.90;99.90;;;;;;5047340;28;20033;-59
2022/09/06 06:11:11;;;;;;;8.75;7.78;;;18.00;99.90;;;;;;5056711;28;20084;-58
2022/09/06 06:13:38;;;;;;;11.10;8.10;;;17.80;99.90;;;;;;5063148;28;20056;-58
2022/09/06 06:16:09;;;;;;;10.88;8.50;;;17.90;99.90;;;;;;5035268;28;20080;-59
2022/09/06 06:18:35;;;;;;;12.73;8.27;;;17.80;99.90;;;;;;5053991;28;20040;-57
2022/09/06 06:21:06;;;;;;;10.38;8.60;;;17.70;99.90;;;;;;5036578;28;20037;-58
2022/09/06 06:23:32;;;;;;;11.95;9.35;;;17.70;99.90;;;;;;5033168;28;20115;-59
2022/09/06 06:25:57;;;;;;;16.55;9.02;;;17.70;99.90;;;;;;5057168;28;20061;-58
2022/09/06 06:28:23;;;;;;;13.00;8.85;;;17.70;99.90;;;;;;5047378;28;20068;-58
2022/09/06 06:30:49;;;;;;;10.32;8.95;;;17.60;99.90;;;;;;5037460;28;20042;-58
2022/09/06 06:33:14;;;;;;;13.25;9.02;;;18.00;99.90;;;;;;5047973;28;20040;-58
2022/09/06 06:35:40;;;;;;;15.20;9.25;;;18.10;99.90;;;;;;5051396;28;20044;-57
2022/09/06 06:38:05;;;;;;;9.88;8.70;;;17.80;99.90;;;;;;5047155;28;20072;-59
2022/09/06 06:40:31;;;;;;;10.93;9.05;;;17.80;99.90;;;;;;5030531;28;20465;-58
2022/09/06 06:42:56;;;;;;;10.25;9.15;;;17.90;99.90;;;;;;5056399;28;20083;-58
2022/09/06 06:45:22;;;;;;;13.98;9.73;;;18.00;99.90;;;;;;5020633;28;20083;-58
2022/09/06 06:47:50;;;;;;;15.77;9.25;;;18.10;99.90;;;;;;5042684;28;20441;-59
2022/09/06 06:50:16;;;;;;;12.00;8.70;;;18.30;99.90;;;;;;5049459;28;20044;-58
2022/09/06 06:52:41;;;;;;;13.65;8.77;;;18.50;99.90;;;;;;5048186;28;20033;-61
2022/09/06 06:55:07;;;;;;;9.55;8.35;;;18.60;99.90;;;;;;5050273;28;20129;-60
2022/09/06 06:57:33;;;;;;;13.35;8.75;;;18.90;99.90;;;;;;5044169;28;20115;-58
2022/09/06 06:59:59;;;;;;;9.00;7.53;;;19.00;99.90;;;;;;5048291;28;20041;-57
2022/09/06 07:02:24;;;;;;;9.52;8.55;;;19.20;99.90;;;;;;5049041;28;20112;-60
2022/09/06 07:04:50;;;;;;;14.27;8.32;;;19.20;99.90;;;;;;5041929;28;20042;-59
2022/09/06 07:07:15;;;;;;;9.25;7.90;;;19.50;99.90;;;;;;5037993;28;20458;-59
2022/09/06 07:09:41;;;;;;;12.52;8.57;;;19.60;99.90;;;;;;5025057;28;20036;-58
2022/09/06 07:12:07;;;;;;;10.77;8.48;;;19.80;99.90;;;;;;5029005;28;20036;-59
2022/09/06 07:14:32;;;;;;;10.93;8.57;;;20.00;99.90;;;;;;5047881;28;20128;-60
2022/09/06 07:16:58;;;;;;;12.13;8.45;;;20.00;99.90;;;;;;5028545;28;20128;-59
2022/09/06 07:19:23;;;;;;;13.00;8.43;;;20.00;99.90;;;;;;5046600;28;20127;-58
2022/09/06 07:21:49;;;;;;;10.77;8.23;;;20.00;99.90;;;;;;5033264;28;20498;-58
2022/09/06 07:24:14;;;;;;;13.65;8.73;;;20.00;99.90;;;;;;5046560;28;20120;-58
2022/09/06 07:26:40;;;;;;;12.68;8.38;;;20.10;99.90;;;;;;5046837;28;20086;-59
2022/09/06 07:29:06;;;;;;;13.02;8.50;;;20.20;99.90;;;;;;5048007;28;20235;-61
2022/09/06 07:31:32;;;;;;;23.30;8.60;;;20.30;99.90;;;;;;5052230;28;20052;-59
2022/09/06 07:33:58;;;;;;;11.70;8.57;;;20.30;99.90;;;;;;5047173;28;20521;-59
2022/09/06 07:36:24;;;;;;;14.23;8.32;;;20.30;99.90;;;;;;5041608;28;20037;-61
2022/09/06 07:38:50;;;;;;;9.98;8.43;;;20.30;99.90;;;;;;5047581;28;20040;-59
2022/09/06 07:41:17;;;;;;;12.50;7.85;;;20.30;99.90;;;;;;5045348;28;20143;-60
2022/09/06 07:43:42;;;;;;;12.05;7.97;;;20.40;99.90;;;;;;5047402;28;20044;-60
2022/09/06 07:46:11;;;;;;;12.73;8.18;;;20.50;99.90;;;;;;5051840;28;20036;-58
2022/09/06 07:48:39;;;;;;;10.93;7.80;;;20.70;99.90;;;;;;5051649;28;20596;-59
2022/09/06 07:51:19;;;;;;;11.38;8.68;;;21.00;99.90;;;;;;5049037;28;20044;-58
2022/09/06 07:53:51;;;;;;;9.10;7.10;;;21.40;99.90;;;;;;5038598;28;20040;-61
2022/09/06 07:56:19;;;;;;;10.60;7.47;;;21.80;99.90;;;;;;5050341;28;20621;-60
2022/09/06 07:58:44;;;;;;;9.60;8.05;;;22.10;99.90;;;;;;5041021;28;20079;-59
2022/09/06 08:01:18;;;;;;;10.10;7.18;;;22.20;99.90;;;;;;5051561;28;21659;-59
2022/09/06 08:03:45;;;;;;;13.55;7.22;;;22.50;99.90;;;;;;5048363;28;20554;-60
2022/09/06 08:06:11;;;;;;;9.25;7.80;;;22.70;99.90;;;;;;5047211;28;20398;-59
2022/09/06 08:08:37;;;;;;;8.82;7.05;;;23.00;99.90;;;;;;5046819;28;20083;-60
2022/09/06 08:11:03;;;;;;;8.48;7.20;;;23.10;99.90;;;;;;5036128;28;20120;-60
2022/09/06 08:13:28;;;;;;;9.43;7.63;;;23.30;99.90;;;;;;5049876;28;20049;-60
2022/09/06 08:16:10;;;;;;;8.50;7.18;;;23.30;99.90;;;;;;5043565;28;20041;-60
2022/09/06 08:18:36;;;;;;;13.73;7.57;;;23.60;99.90;;;;;;5045586;28;20029;-61
2022/09/06 08:21:22;;;;;;;9.02;7.38;;;23.60;99.90;;;;;;5032263;28;20045;-59
2022/09/06 08:24:05;;;;;;;12.82;7.82;;;23.20;99.90;;;;;;5029628;28;20072;-59
2022/09/06 08:26:33;;;;;;;12.75;7.35;;;23.20;1.00;;;;;;5047220;28;20565;-59
2022/09/06 08:29:05;;;;;;;11.02;7.00;;;23.60;99.90;;;;;;5028864;28;20069;-59
2022/09/06 08:31:32;;;;;;;9.57;8.00;;;23.80;99.90;;;;;;5048729;28;20033;-60
2022/09/06 08:33:59;;;;;;;12.98;7.32;;;23.70;99.90;;;;;;5047457;28;20044;-60
2022/09/06 08:36:29;;;;;;;11.23;7.50;;;23.80;29.90;;;;;;5049014;28;20045;-60
2022/09/06 08:38:56;;;;;;;9.27;7.07;;;24.20;99.90;;;;;;5047728;28;20069;-59
2022/09/06 08:41:43;;;;;;;14.15;6.95;;;24.60;99.90;;;;;;5045837;28;20063;-60
2022/09/06 08:44:25;;;;;;;12.40;7.35;;;24.80;62.90;;;;;;5029892;28;20110;-60
2022/09/06 08:46:56;;;;;;;11.15;7.07;;;24.90;99.90;;;;;;5044701;28;20041;-60
2022/09/06 08:49:24;;;;;;;9.63;6.70;;;25.20;1.00;;;;;;5050140;28;20051;-60
2022/09/06 08:52:17;;;;;;;13.00;6.50;;;25.40;99.90;;;;;;5050526;28;20087;-61
2022/09/06 08:55:08;;;;;;;9.70;7.07;;;25.40;99.90;;;;;;5043527;28;20041;-60
2022/09/06 08:58:05;;;;;;;9.77;7.25;;;25.70;99.90;;;;;;5048834;28;20064;-60
2022/09/06 09:00:32;;;;;;;8.38;7.13;;;25.80;1.00;;;;;;5045855;28;20087;-59
2022/09/06 09:03:15;;;;;;;10.32;7.60;;;26.00;99.90;;;;;;5048422;28;20040;-59
2022/09/06 09:05:42;;;;;;;11.63;5.90;;;26.20;60.00;;;;;;5050209;28;20092;-59
2022/09/06 09:08:43;;;;;;;7.00;5.70;;;26.50;1.00;;;;;;5048607;28;20453;-61
2022/09/06 09:11:15;;;;;;;13.70;6.38;;;26.60;99.90;;;;;;5047406;28;20551;-60
2022/09/06 09:13:44;;;;;;;10.65;6.85;;;26.60;99.90;;;;;;5032407;28;20044;-60
2022/09/06 09:16:10;;;;;;;8.43;5.00;;;26.70;99.90;;;;;;5050303;28;20033;-59
2022/09/06 09:18:38;;;;;;;9.38;5.70;;;26.90;45.20;;;;;;5029400;28;20045;-60
2022/09/06 09:21:04;;;;;;;7.65;5.75;;;26.90;1.00;;;;;;5049177;28;20463;-60
2022/09/06 09:23:30;;;;;;;8.95;6.32;;;27.00;1.00;;;;;;5047150;28;20065;-60
2022/09/06 09:26:01;;;;;;;6.82;6.07;;;27.00;1.00;;;;;;5040394;28;20423;-60
2022/09/06 09:28:27;;;;;;;9.02;6.55;;;27.20;99.90;;;;;;5043534;28;20044;-63
2022/09/06 09:30:54;;;;;;;10.13;6.88;;;27.30;99.90;;;;;;5047916;28;20033;-60
2022/09/06 09:33:35;;;;;;;10.48;5.53;;;27.20;99.90;;;;;;5022034;28;20044;-60
2022/09/06 09:36:06;;;;;;;7.10;6.40;;;27.00;99.90;;;;;;5047494;28;20513;-60
2022/09/06 09:38:48;;;;;;;7.20;5.75;;;27.10;99.90;;;;;;5050641;28;20044;-60
2022/09/06 09:41:33;;;;;;;8.25;6.10;;;27.00;99.90;;;;;;5030038;28;20045;-60
2022/09/06 09:44:02;;;;;;;9.52;5.85;;;27.20;99.90;;;;;;5041470;28;20502;-60
2022/09/06 09:46:31;;;;;;;7.57;6.10;;;27.30;99.90;;;;;;5045026;28;20195;-61
2022/09/06 09:49:13;;;;;;;6.45;5.70;;;27.20;98.90;;;;;;5048774;28;20490;-61
2022/09/06 09:51:42;;;;;;;12.00;5.10;;;27.30;87.50;;;;;;5047872;28;20064;-60
2022/09/06 09:54:10;;;;;;;6.65;5.95;;;27.30;55.10;;;;;;5049335;28;20506;-60
2022/09/06 09:56:38;;;;;;;8.82;5.88;;;27.10;24.70;;;;;;5050388;28;20525;-60
2022/09/06 09:59:19;;;;;;;8.50;5.82;;;27.20;36.70;;;;;;5048516;28;20028;-60
2022/09/06 10:01:45;;;;;;;7.53;5.30;;;27.20;22.70;;;;;;5050066;28;20045;-60
2022/09/06 10:04:16;;;;;;;9.20;5.75;;;27.30;17.80;;;;;;5028810;28;20060;-63
2022/09/06 10:06:42;;;;;;;9.02;5.22;;;27.50;13.00;;;;;;5043870;28;20126;-61
2022/09/06 10:09:28;;;;;;;11.80;5.55;;;27.70;3.90;;;;;;5043821;28;20064;-60
2022/09/06 10:11:56;;;;;;;10.45;4.68;;;27.80;1.00;;;;;;5048477;28;20041;-62
2022/09/06 10:14:32;;;;;;;7.35;5.80;;;28.00;1.00;;;;;;5052017;28;20398;-60
2022/09/06 10:16:58;;;;;;;8.55;5.57;;;28.10;1.00;;;;;;5051879;28;20041;-60
2022/09/06 10:19:44;;;;;;;6.20;4.47;;;28.00;1.00;;;;;;5044214;28;20168;-60
2022/09/06 10:22:34;;;;;;;6.63;3.58;;;28.00;1.00;;;;;;5052324;28;20156;-60
2022/09/06 10:25:13;;;;;;;6.53;4.10;;;28.20;1.00;;;;;;5034832;28;20040;-60
2022/09/06 10:28:04;;;;;;;6.07;4.43;;;27.80;1.00;;;;;;5035002;28;20789;-60
2022/09/06 10:30:33;;;;;;;7.18;4.10;;;27.60;1.00;;;;;;5042108;28;20136;-60
2022/09/06 10:33:08;;;;;;;7.68;4.78;;;27.50;1.00;;;;;;5050531;28;20106;-61
2022/09/06 10:35:36;;;;;;;7.00;5.10;;;27.60;1.00;;;;;;5033605;28;20567;-60
2022/09/06 10:38:02;;;;;;;5.20;4.15;;;27.60;1.00;;;;;;5051646;28;20043;-60
2022/09/06 10:40:45;;;;;;;6.53;3.55;;;27.80;1.00;;;;;;5042460;28;20045;-61
2022/09/06 10:43:17;;;;;;;6.15;4.20;;;28.10;1.00;;;;;;5042290;28;20056;-60
2022/09/06 10:46:08;;;;;;;7.60;4.03;;;27.90;1.00;;;;;;5049538;28;20040;-60
2022/09/06 10:48:43;;;;;;;7.68;3.60;;;27.60;1.00;;;;;;5048795;28;20120;-60
2022/09/06 10:51:33;;;;;;;6.53;2.90;;;27.40;1.00;;;;;;5051580;28;20045;-60
2022/09/06 10:54:07;;;;;;;7.38;3.45;;;26.90;1.00;;;;;;5034234;28;20070;-61
2022/09/06 10:56:43;;;;;;;6.53;3.80;;;26.60;1.00;;;;;;5053409;28;20052;-59
2022/09/06 10:59:30;;;;;;;4.03;3.30;;;26.50;1.00;;;;;;5050224;28;20068;-60
2022/09/06 11:02:20;;;;;;;5.53;3.20;;;26.50;1.00;;;;;;5049305;28;20045;-60
2022/09/06 11:04:49;;;;;;;7.03;4.13;;;26.50;1.00;;;;;;5049295;28;20056;-58
2022/09/06 11:07:33;;;;;;;15.93;3.83;;;26.50;1.00;;;;;;5050443;28;20041;-60
2022/09/06 11:10:23;;;;;;;6.13;4.22;;;26.60;1.00;;;;;;5045278;28;20045;-59
2022/09/06 11:13:04;;;;;;;7.25;4.32;;;26.60;1.00;;;;;;5052118;28;20041;-59
2022/09/06 11:15:42;;;;;;;9.02;4.03;;;26.60;1.00;;;;;;5032084;28;20041;-61
2022/09/06 11:18:18;;;;;;;4.93;3.50;;;26.60;1.00;;;;;;5051330;28;20056;-60
2022/09/06 11:20:59;;;;;;;;;;;26.60;1.00;;;;;;5041959;28;20045;-59
2022/09/06 11:24:02;;;;;;;6.25;4.28;;;26.40;1.00;;;;;;5048960;28;19920;-59
2022/09/06 11:26:35;;;;;;;6.32;4.40;;;26.30;1.00;;;;;;5033429;28;20108;-59
2022/09/06 11:29:06;;;;;;;8.75;4.60;;;26.40;1.00;;;;;;5048229;28;20037;-60
2022/09/06 11:31:33;;;;;;;5.85;5.25;;;26.40;1.00;;;;;;5050551;28;20041;-59
2022/09/06 11:34:17;;;;;;;9.05;5.80;;;26.40;1.00;;;;;;5045502;28;20120;-60
2022/09/06 11:36:49;;;;;;;5.97;4.18;;;26.40;1.00;;;;;;5056846;28;20111;-59
2022/09/06 11:39:32;;;;;;;8.25;4.22;;;26.40;1.00;;;;;;5042951;28;20044;-59
2022/09/06 11:41:58;;;;;;;4.93;3.50;;;26.50;1.00;;;;;;5046597;28;20218;-60
2022/09/06 11:44:51;;;;;;;5.38;4.65;;;26.50;1.00;;;;;;5033281;28;20387;-59
2022/09/06 11:47:37;;;;;;;6.55;5.35;;;26.50;1.00;;;;;;5043669;28;20067;-60
2022/09/06 11:50:20;;;;;;;7.00;5.30;;;26.70;1.00;;;;;;5048574;28;20361;-59
2022/09/06 11:52:59;;;;;;;7.20;3.85;;;26.80;1.00;;;;;;5052411;28;20075;-59
2022/09/06 11:55:44;;;;;;;4.43;4.00;;;26.90;1.00;;;;;;5051635;28;20055;-61
2022/09/06 11:58:16;;;;;;;6.03;4.47;;;26.90;1.00;;;;;;5048708;28;20033;-59
2022/09/06 12:00:43;;;;;;;6.07;3.83;;;26.80;1.00;;;;;;5045262;28;20049;-59
2022/09/06 12:03:29;;;;;;;5.10;3.45;;;26.90;1.00;;;;;;5044564;28;20129;-59
2022/09/06 12:06:16;;;;;;;8.30;4.53;;;26.90;1.00;;;;;;5016758;28;20144;-59
2022/09/06 12:08:42;;;;;;;8.77;4.50;;;26.70;1.00;;;;;;5050280;28;20036;-59
2022/09/06 12:11:34;;;;;;;8.27;5.65;;;26.50;1.00;;;;;;5051788;28;20410;-60
2022/09/06 12:14:04;;;;;;;10.80;4.18;;;26.50;1.00;;;;;;5047493;28;20071;-59
2022/09/06 12:16:58;;;;;;;12.48;4.20;;;26.50;1.00;;;;;;5044453;28;20037;-59
2022/09/06 12:19:53;;;;;;;5.03;4.05;;;26.70;1.00;;;;;;5048511;28;20055;-60
2022/09/06 12:22:39;;;;;;;8.57;4.10;;;26.70;1.00;;;;;;5026089;28;20044;-59
2022/09/06 12:25:06;;;;;;;;;;;26.70;1.00;;;;;;5035514;28;20048;-60
2022/09/06 12:27:49;;;;;;;4.85;3.95;;;26.70;1.00;;;;;;5049708;28;20016;-60
2022/09/06 12:30:29;;;;;;;8.85;3.90;;;26.70;1.00;;;;;;5044486;28;20403;-60
2022/09/06 12:32:56;;;;;;;6.43;3.42;;;26.80;1.00;;;;;;5047165;28;20040;-59
2022/09/06 12:35:24;;;;;;;4.25;3.10;;;26.80;1.00;;;;;;5049462;28;20044;-59
2022/09/06 12:38:01;;;;;;;6.47;3.22;;;26.80;1.00;;;;;;5044820;28;20032;-62
2022/09/06 12:40:36;;;;;;;4.90;2.67;;;26.90;1.00;;;;;;5048116;28;20056;-61
2022/09/06 12:43:04;;;;;;;8.90;2.75;;;26.80;1.00;;;;;;5044780;28;20421;-61
2022/09/06 12:45:29;;;;;;;3.90;2.65;;;26.60;1.00;;;;;;5040855;28;20453;-59
2022/09/06 12:48:10;;;;;;;5.90;2.88;;;26.50;1.00;;;;;;5044988;28;20040;-59
2022/09/06 12:50:36;;;;;;;6.22;3.30;;;26.60;1.00;;;;;;5053083;28;20083;-60
2022/09/06 12:53:15;;;;;;;7.20;2.90;;;26.70;1.00;;;;;;5057239;28;20076;-59
2022/09/06 12:55:40;;;;;;;4.40;2.60;;;26.70;1.00;;;;;;5052858;28;20044;-60
2022/09/06 12:58:09;;;;;;;5.68;3.10;;;26.90;1.00;;;;;;5046459;28;20033;-59
2022/09/06 13:00:41;;;;;;;4.85;2.60;;;26.80;1.00;;;;;;5055652;28;20051;-59
2022/09/06 13:03:19;;;;;;;9.50;3.10;;;26.80;1.00;;;;;;5049709;28;20375;-59
2022/09/06 13:05:46;;;;;;;13.32;3.20;;;26.80;1.00;;;;;;5050866;28;20056;-59